sensor_id;sensor_type;location;lat;lon;timestamp;pressure;altitude;pressure_sealevel;temperature;humidity
39739;BME280;25422;48.286;8.484;2024-02-04T00:00:53;95207.50;;;2.88;100.00
39739;BME280;25422;48.286;8.484;2024-02-04T00:03:19;95204.25;;;2.84;100.00
39739;BME280;25422;48.286;8.484;2024-02-04T00:05:44;95190.41;;;2.85;100.00
39739;BME280;25422;48.286;8.484;2024-02-04T00:08:10;95188.66;;;2.86;100.00
39739;BME280;25422;48.286;8.484;2024-02-04T00:10:38;95181.09;;;2.83;100.00
39739;BME280;25422;48.286;8.484;2024-02-04T00:13:03;95169.09;;;2.82;100.00
39739;BME280;25422;48.286;8.484;2024-02-04T00:15:28;95173.34;;;2.83;100.00
39739;BME280;25422;48.286;8.484;2024-02-04T00:17:54;95175.28;;;2.79;100.00
39739;BME280;25422;48.286;8.484;2024-02-04T00:20:19;95187.59;;;2.76;100.00
39739;BME280;25422;48.286;8.484;2024-02-04T00:22:45;95176.31;;;2.77;100.00
39739;BME280;25422;48.286;8.484;2024-02-04T00:25:10;95172.25;;;2.73;100.00
39739;BME280;25422;48.286;8.484;2024-02-04T00:27:37;95170.44;;;2.75;100.00
39739;BME280;25422;48.286;8.484;2024-02-04T00:30:02;95170.31;;;2.76;100.00
39739;BME280;25422;48.286;8.484;2024-02-04T00:32:28;95179.53;;;2.80;100.00
39739;BME280;25422;48.286;8.484;2024-02-04T00:34:53;95181.19;;;2.81;100.00
39739;BME280;25422;48.286;8.484;2024-02-04T00:37:19;95170.03;;;2.81;100.00
39739;BME280;25422;48.286;8.484;2024-02-04T00:39:45;95165.78;;;2.80;100.00
39739;BME280;25422;48.286;8.484;2024-02-04T00:42:10;95145.22;;;2.78;100.00
39739;BME280;25422;48.286;8.484;2024-02-04T00:44:36;95129.78;;;2.77;100.00
39739;BME280;25422;48.286;8.484;2024-02-04T00:47:02;95131.66;;;2.75;100.00
39739;BME280;25422;48.286;8.484;2024-02-04T00:49:28;95146.41;;;2.73;100.00
39739;BME280;25422;48.286;8.484;2024-02-04T00:51:53;95155.84;;;2.74;100.00
39739;BME280;25422;48.286;8.484;2024-02-04T00:54:19;95140.97;;;2.77;100.00
39739;BME280;25422;48.286;8.484;2024-02-04T00:56:44;95121.22;;;2.76;100.00
39739;BME280;25422;48.286;8.484;2024-02-04T00:59:10;95119.56;;;2.75;100.00
39739;BME280;25422;48.286;8.484;2024-02-04T01:01:37;95118.94;;;2.72;100.00
39739;BME280;25422;48.286;8.484;2024-02-04T01:04:02;95108.06;;;2.66;100.00
39739;BME280;25422;48.286;8.484;2024-02-04T01:06:28;95107.66;;;2.73;100.00
39739;BME280;25422;48.286;8.484;2024-02-04T01:08:55;95110.56;;;2.68;100.00
39739;BME280;25422;48.286;8.484;2024-02-04T01:11:20;95108.06;;;2.66;100.00
39739;BME280;25422;48.286;8.484;2024-02-04T01:13:46;95110.44;;;2.69;100.00
39739;BME280;25422;48.286;8.484;2024-02-04T01:16:11;95124.22;;;2.70;100.00
39739;BME280;25422;48.286;8.484;2024-02-04T01:18:37;95120.31;;;2.77;100.00
39739;BME280;25422;48.286;8.484;2024-02-04T01:21:02;95118.09;;;2.71;100.00
39739;BME280;25422;48.286;8.484;2024-02-04T01:23:28;95115.81;;;2.66;100.00
39739;BME280;25422;48.286;8.484;2024-02-04T01:25:53;95116.94;;;2.62;100.00
39739;BME280;25422;48.286;8.484;2024-02-04T01:28:19;95120.78;;;2.69;100.00
39739;BME280;25422;48.286;8.484;2024-02-04T01:30:44;95129.06;;;2.75;100.00
39739;BME280;25422;48.286;8.484;2024-02-04T01:33:10;95130.19;;;2.70;100.00
39739;BME280;25422;48.286;8.484;2024-02-04T01:35:35;95121.00;;;2.66;100.00
39739;BME280;25422;48.286;8.484;2024-02-04T01:38:00;95136.38;;;2.68;100.00
39739;BME280;25422;48.286;8.484;2024-02-04T01:40:26;95142.38;;;2.68;100.00
39739;BME280;25422;48.286;8.484;2024-02-04T01:42:51;95134.00;;;2.65;100.00
39739;BME280;25422;48.286;8.484;2024-02-04T01:45:17;95122.13;;;2.62;100.00
39739;BME280;25422;48.286;8.484;2024-02-04T01:47:42;95115.38;;;2.60;100.00
39739;BME280;25422;48.286;8.484;2024-02-04T01:50:09;95123.34;;;2.57;100.00
39739;BME280;25422;48.286;8.484;2024-02-04T01:52:37;95118.44;;;2.52;100.00
39739;BME280;25422;48.286;8.484;2024-02-04T01:55:04;95102.78;;;2.55;100.00
39739;BME280;25422;48.286;8.484;2024-02-04T01:57:31;95102.78;;;2.55;100.00
39739;BME280;25422;48.286;8.484;2024-02-04T01:59:57;95103.69;;;2.54;100.00
39739;BME280;25422;48.286;8.484;2024-02-04T02:02:24;95106.38;;;2.52;100.00
39739;BME280;25422;48.286;8.484;2024-02-04T02:04:50;95101.31;;;2.51;100.00
39739;BME280;25422;48.286;8.484;2024-02-04T02:07:17;95107.19;;;2.53;100.00
39739;BME280;25422;48.286;8.484;2024-02-04T02:09:45;95099.44;;;2.53;100.00
39739;BME280;25422;48.286;8.484;2024-02-04T02:12:16;95115.16;;;2.50;100.00
39739;BME280;25422;48.286;8.484;2024-02-04T02:14:46;95110.25;;;2.45;100.00
39739;BME280;25422;48.286;8.484;2024-02-04T02:17:16;95114.69;;;2.43;100.00
39739;BME280;25422;48.286;8.484;2024-02-04T02:19:57;95121.44;;;2.46;100.00
39739;BME280;25422;48.286;8.484;2024-02-04T02:25:09;95117.19;;;2.45;100.00
39739;BME280;25422;48.286;8.484;2024-02-04T02:27:51;95131.94;;;2.43;100.00
39739;BME280;25422;48.286;8.484;2024-02-04T02:30:17;95127.31;;;2.48;100.00
39739;BME280;25422;48.286;8.484;2024-02-04T02:32:46;95133.69;;;2.42;100.00
39739;BME280;25422;48.286;8.484;2024-02-04T02:35:17;95140.19;;;2.35;100.00
39739;BME280;25422;48.286;8.484;2024-02-04T02:38:05;95136.94;;;2.31;100.00
39739;BME280;25422;48.286;8.484;2024-02-04T02:40:45;95132.53;;;2.33;100.00
39739;BME280;25422;48.286;8.484;2024-02-04T02:43:13;95135.28;;;2.30;100.00
39739;BME280;25422;48.286;8.484;2024-02-04T02:45:41;95136.50;;;2.25;100.00
39739;BME280;25422;48.286;8.484;2024-02-04T02:48:07;95129.41;;;2.28;100.00
39739;BME280;25422;48.286;8.484;2024-02-04T02:50:35;95115.66;;;2.28;100.00
39739;BME280;25422;48.286;8.484;2024-02-04T02:53:01;95125.47;;;2.23;100.00
39739;BME280;25422;48.286;8.484;2024-02-04T02:55:26;95129.97;;;2.19;100.00
39739;BME280;25422;48.286;8.484;2024-02-04T02:57:52;95124.81;;;2.19;100.00
39739;BME280;25422;48.286;8.484;2024-02-04T03:00:17;95127.38;;;2.19;100.00
39739;BME280;25422;48.286;8.484;2024-02-04T03:02:43;95120.84;;;2.13;100.00
39739;BME280;25422;48.286;8.484;2024-02-04T03:05:08;95119.94;;;2.14;100.00
39739;BME280;25422;48.286;8.484;2024-02-04T03:07:35;95114.31;;;2.08;100.00
39739;BME280;25422;48.286;8.484;2024-02-04T03:10:00;95117.63;;;2.10;100.00
39739;BME280;25422;48.286;8.484;2024-02-04T03:12:26;95122.59;;;2.13;100.00
39739;BME280;25422;48.286;8.484;2024-02-04T03:14:51;95120.66;;;2.16;100.00
39739;BME280;25422;48.286;8.484;2024-02-04T03:17:17;95118.81;;;2.18;100.00
39739;BME280;25422;48.286;8.484;2024-02-04T03:19:47;95131.91;;;2.15;100.00
39739;BME280;25422;48.286;8.484;2024-02-04T03:22:13;95135.78;;;2.23;100.00
39739;BME280;25422;48.286;8.484;2024-02-04T03:24:38;95139.19;;;2.23;100.00
39739;BME280;25422;48.286;8.484;2024-02-04T03:27:04;95141.78;;;2.23;100.00
39739;BME280;25422;48.286;8.484;2024-02-04T03:29:29;95149.50;;;2.23;100.00
39739;BME280;25422;48.286;8.484;2024-02-04T03:31:58;95152.09;;;2.23;100.00
39739;BME280;25422;48.286;8.484;2024-02-04T03:34:24;95153.84;;;2.23;100.00
39739;BME280;25422;48.286;8.484;2024-02-04T03:36:49;95155.44;;;2.25;100.00
39739;BME280;25422;48.286;8.484;2024-02-04T03:39:15;95152.91;;;2.24;100.00
39739;BME280;25422;48.286;8.484;2024-02-04T03:41:40;95150.97;;;2.27;100.00
39739;BME280;25422;48.286;8.484;2024-02-04T03:44:06;95152.84;;;2.25;100.00
39739;BME280;25422;48.286;8.484;2024-02-04T03:46:31;95162.53;;;2.22;100.00
39739;BME280;25422;48.286;8.484;2024-02-04T03:48:57;95162.53;;;2.22;100.00
39739;BME280;25422;48.286;8.484;2024-02-04T03:51:22;95150.34;;;2.24;100.00
39739;BME280;25422;48.286;8.484;2024-02-04T03:53:49;95155.50;;;2.24;100.00
39739;BME280;25422;48.286;8.484;2024-02-04T03:56:15;95150.34;;;2.24;100.00
39739;BME280;25422;48.286;8.484;2024-02-04T03:58:41;95149.50;;;2.23;100.00
39739;BME280;25422;48.286;8.484;2024-02-04T04:01:10;95135.03;;;2.21;100.00
39739;BME280;25422;48.286;8.484;2024-02-04T04:03:39;95127.38;;;2.19;100.00
39739;BME280;25422;48.286;8.484;2024-02-04T04:06:05;95128.22;;;2.19;100.00
39739;BME280;25422;48.286;8.484;2024-02-04T04:08:31;95124.06;;;2.17;100.00
39739;BME280;25422;48.286;8.484;2024-02-04T04:10:57;95123.69;;;2.23;100.00
39739;BME280;25422;48.286;8.484;2024-02-04T04:13:22;95127.75;;;2.27;100.00
39739;BME280;25422;48.286;8.484;2024-02-04T04:15:47;95133.00;;;2.26;100.00
39739;BME280;25422;48.286;8.484;2024-02-04T04:18:13;95111.53;;;2.25;100.00
39739;BME280;25422;48.286;8.484;2024-02-04T04:20:39;95114.81;;;2.27;100.00
39739;BME280;25422;48.286;8.484;2024-02-04T04:23:04;95124.34;;;2.27;100.00
39739;BME280;25422;48.286;8.484;2024-02-04T04:25:29;95117.72;;;2.23;100.00
39739;BME280;25422;48.286;8.484;2024-02-04T04:27:55;95124.34;;;2.27;100.00
39739;BME280;25422;48.286;8.484;2024-02-04T04:30:22;95128.50;;;2.29;100.00
39739;BME280;25422;48.286;8.484;2024-02-04T04:32:48;95116.50;;;2.28;100.00
39739;BME280;25422;48.286;8.484;2024-02-04T04:35:13;95118.72;;;2.20;100.00
39739;BME280;25422;48.286;8.484;2024-02-04T04:37:39;95119.66;;;2.19;100.00
39739;BME280;25422;48.286;8.484;2024-02-04T04:40:04;95118.28;;;2.13;100.00
39739;BME280;25422;48.286;8.484;2024-02-04T04:42:30;95117.25;;;2.16;100.00
39739;BME280;25422;48.286;8.484;2024-02-04T04:44:56;95115.03;;;2.10;100.00
39739;BME280;25422;48.286;8.484;2024-02-04T04:47:21;95115.25;;;2.07;100.00
39739;BME280;25422;48.286;8.484;2024-02-04T04:49:47;95119.28;;;2.11;100.00
39739;BME280;25422;48.286;8.484;2024-02-04T04:52:12;95115.25;;;2.07;100.00
39739;BME280;25422;48.286;8.484;2024-02-04T04:54:39;95111.91;;;2.05;100.00
39739;BME280;25422;48.286;8.484;2024-02-04T04:57:05;95118.38;;;2.12;100.00
39739;BME280;25422;48.286;8.484;2024-02-04T04:59:30;95105.63;;;2.09;100.00
39739;BME280;25422;48.286;8.484;2024-02-04T05:01:55;95094.03;;;2.01;100.00
39739;BME280;25422;48.286;8.484;2024-02-04T05:04:21;95098.91;;;2.06;100.00
39739;BME280;25422;48.286;8.484;2024-02-04T05:06:51;95089.34;;;2.08;100.00
39739;BME280;25422;48.286;8.484;2024-02-04T05:09:16;95086.44;;;2.13;100.00
39739;BME280;25422;48.286;8.484;2024-02-04T05:11:41;95081.47;;;2.10;100.00
39739;BME280;25422;48.286;8.484;2024-02-04T05:14:07;95090.78;;;2.12;100.00
39739;BME280;25422;48.286;8.484;2024-02-04T05:16:33;95095.09;;;2.26;100.00
39739;BME280;25422;48.286;8.484;2024-02-04T05:18:58;95093.41;;;2.40;100.00
39739;BME280;25422;48.286;8.484;2024-02-04T05:21:24;95100.38;;;2.52;100.00
39739;BME280;25422;48.286;8.484;2024-02-04T05:23:49;95105.34;;;2.55;100.00
39739;BME280;25422;48.286;8.484;2024-02-04T05:26:17;95102.13;;;2.51;100.00
39739;BME280;25422;48.286;8.484;2024-02-04T05:28:43;95104.91;;;2.48;100.00
39739;BME280;25422;48.286;8.484;2024-02-04T05:31:09;95097.78;;;2.52;100.00
39739;BME280;25422;48.286;8.484;2024-02-04T05:33:34;95103.03;;;2.50;100.00
39739;BME280;25422;48.286;8.484;2024-02-04T05:35:59;95107.56;;;2.47;100.00
39739;BME280;25422;48.286;8.484;2024-02-04T05:38:25;95110.69;;;2.52;100.00
39739;BME280;25422;48.286;8.484;2024-02-04T05:40:50;95106.38;;;2.52;100.00
39739;BME280;25422;48.286;8.484;2024-02-04T05:43:16;95124.63;;;2.49;100.00
39739;BME280;25422;48.286;8.484;2024-02-04T05:45:41;95127.50;;;2.45;100.00
39739;BME280;25422;48.286;8.484;2024-02-04T05:48:10;95132.88;;;2.42;100.00
39739;BME280;25422;48.286;8.484;2024-02-04T05:50:36;95126.25;;;2.38;100.00
39739;BME280;25422;48.286;8.484;2024-02-04T05:53:01;95132.44;;;2.35;100.00
39739;BME280;25422;48.286;8.484;2024-02-04T05:55:27;95135.13;;;2.33;100.00
39739;BME280;25422;48.286;8.484;2024-02-04T05:57:52;95142.88;;;2.33;100.00
39739;BME280;25422;48.286;8.484;2024-02-04T06:00:18;95144.69;;;2.31;100.00
39739;BME280;25422;48.286;8.484;2024-02-04T06:02:43;95151.44;;;2.34;100.00
39739;BME280;25422;48.286;8.484;2024-02-04T06:05:09;95154.13;;;2.32;100.00
39739;BME280;25422;48.286;8.484;2024-02-04T06:07:35;95145.44;;;2.33;100.00
39739;BME280;25422;48.286;8.484;2024-02-04T06:10:00;95150.50;;;2.35;100.00
39739;BME280;25422;48.286;8.484;2024-02-04T06:12:28;95151.63;;;2.31;100.00
39739;BME280;25422;48.286;8.484;2024-02-04T06:14:54;95151.78;;;2.28;100.00
39739;BME280;25422;48.286;8.484;2024-02-04T06:17:19;95152.84;;;2.25;100.00
39739;BME280;25422;48.286;8.484;2024-02-04T06:19:45;95158.00;;;2.25;100.00
39739;BME280;25422;48.286;8.484;2024-02-04T06:22:10;95154.47;;;2.26;100.00
39739;BME280;25422;48.286;8.484;2024-02-04T06:24:35;95152.19;;;2.22;100.00
39739;BME280;25422;48.286;8.484;2024-02-04T06:27:03;95155.59;;;2.22;100.00
39739;BME280;25422;48.286;8.484;2024-02-04T06:29:28;95151.34;;;2.21;100.00
39739;BME280;25422;48.286;8.484;2024-02-04T06:31:54;95148.03;;;2.19;100.00
39739;BME280;25422;48.286;8.484;2024-02-04T06:34:19;95146.38;;;2.18;100.00
39739;BME280;25422;48.286;8.484;2024-02-04T06:36:44;95141.31;;;2.16;100.00
39739;BME280;25422;48.286;8.484;2024-02-04T06:39:10;95140.50;;;2.16;100.00
39739;BME280;25422;48.286;8.484;2024-02-04T06:41:36;95138.84;;;2.15;100.00
39739;BME280;25422;48.286;8.484;2024-02-04T06:44:03;95137.91;;;2.16;100.00
39739;BME280;25422;48.286;8.484;2024-02-04T06:46:29;95127.59;;;2.16;100.00
39739;BME280;25422;48.286;8.484;2024-02-04T06:48:55;95131.91;;;2.15;100.00
39739;BME280;25422;48.286;8.484;2024-02-04T06:51:20;95133.56;;;2.16;100.00
39739;BME280;25422;48.286;8.484;2024-02-04T06:53:46;95133.19;;;2.23;100.00
39739;BME280;25422;48.286;8.484;2024-02-04T06:56:12;95139.19;;;2.23;100.00
39739;BME280;25422;48.286;8.484;2024-02-04T06:58:38;95142.50;;;2.25;100.00
39739;BME280;25422;48.286;8.484;2024-02-04T07:01:03;95145.09;;;2.25;100.00
39739;BME280;25422;48.286;8.484;2024-02-04T07:03:30;95140.66;;;2.27;100.00
39739;BME280;25422;48.286;8.484;2024-02-04T07:05:55;95142.13;;;2.31;100.00
39739;BME280;25422;48.286;8.484;2024-02-04T07:08:21;95145.63;;;2.30;100.00
39739;BME280;25422;48.286;8.484;2024-02-04T07:10:46;95138.53;;;2.34;100.00
39739;BME280;25422;48.286;8.484;2024-02-04T07:13:12;95131.59;;;2.34;100.00
39739;BME280;25422;48.286;8.484;2024-02-04T07:15:38;95129.84;;;2.35;100.00
39739;BME280;25422;48.286;8.484;2024-02-04T07:18:03;95128.75;;;2.39;100.00
39739;BME280;25422;48.286;8.484;2024-02-04T07:20:29;95131.94;;;2.43;100.00
39739;BME280;25422;48.286;8.484;2024-02-04T07:22:54;95131.22;;;2.41;100.00
39739;BME280;25422;48.286;8.484;2024-02-04T07:25:20;95128.53;;;2.42;100.00
39739;BME280;25422;48.286;8.484;2024-02-04T07:27:45;95138.66;;;2.45;100.00
39739;BME280;25422;48.286;8.484;2024-02-04T07:30:11;95132.38;;;2.49;100.00
39739;BME280;25422;48.286;8.484;2024-02-04T07:32:37;95135.41;;;2.56;100.00
39739;BME280;25422;48.286;8.484;2024-02-04T07:35:02;95140.41;;;2.59;100.00
39739;BME280;25422;48.286;8.484;2024-02-04T07:37:28;95131.53;;;2.63;100.00
39739;BME280;25422;48.286;8.484;2024-02-04T07:39:53;95124.28;;;2.68;100.00
39739;BME280;25422;48.286;8.484;2024-02-04T07:42:19;95122.25;;;2.74;100.00
39739;BME280;25422;48.286;8.484;2024-02-04T07:44:44;95124.56;;;2.78;100.00
39739;BME280;25422;48.286;8.484;2024-02-04T07:47:10;95134.56;;;2.83;100.00
39739;BME280;25422;48.286;8.484;2024-02-04T07:49:36;95138.34;;;2.92;100.00
39739;BME280;25422;48.286;8.484;2024-02-04T07:52:02;95127.16;;;2.91;100.00
39739;BME280;25422;48.286;8.484;2024-02-04T07:54:28;95123.66;;;2.92;100.00
39739;BME280;25422;48.286;8.484;2024-02-04T07:56:54;95122.09;;;2.90;100.00
39739;BME280;25422;48.286;8.484;2024-02-04T07:59:19;95128.00;;;2.92;100.00
39739;BME280;25422;48.286;8.484;2024-02-04T08:01:45;95133.50;;;3.00;100.00
39739;BME280;25422;48.286;8.484;2024-02-04T08:04:10;95134.16;;;3.16;100.00
39739;BME280;25422;48.286;8.484;2024-02-04T08:06:36;95133.72;;;3.23;100.00
39739;BME280;25422;48.286;8.484;2024-02-04T08:09:03;95137.66;;;3.28;100.00
39739;BME280;25422;48.286;8.484;2024-02-04T08:11:29;95137.69;;;3.41;100.00
39739;BME280;25422;48.286;8.484;2024-02-04T08:13:55;95139.88;;;3.47;100.00
39739;BME280;25422;48.286;8.484;2024-02-04T08:16:20;95147.13;;;3.55;100.00
39739;BME280;25422;48.286;8.484;2024-02-04T08:18:46;95153.22;;;3.80;100.00
39739;BME280;25422;48.286;8.484;2024-02-04T08:21:12;95157.25;;;3.97;100.00
39739;BME280;25422;48.286;8.484;2024-02-04T08:23:38;95157.47;;;3.94;100.00
39739;BME280;25422;48.286;8.484;2024-02-04T08:26:05;95166.69;;;3.85;100.00
39739;BME280;25422;48.286;8.484;2024-02-04T08:28:31;95160.59;;;3.99;100.00
39739;BME280;25422;48.286;8.484;2024-02-04T08:30:56;95158.78;;;4.12;100.00
39739;BME280;25422;48.286;8.484;2024-02-04T08:33:22;95155.50;;;3.97;100.00
39739;BME280;25422;48.286;8.484;2024-02-04T08:35:50;95151.56;;;3.66;100.00
39739;BME280;25422;48.286;8.484;2024-02-04T08:38:16;95143.38;;;3.85;100.00
39739;BME280;25422;48.286;8.484;2024-02-04T08:40:41;95149.00;;;3.79;100.00
39739;BME280;25422;48.286;8.484;2024-02-04T08:43:06;95157.16;;;3.72;100.00
39739;BME280;25422;48.286;8.484;2024-02-04T08:45:32;95151.69;;;3.77;100.00
39739;BME280;25422;48.286;8.484;2024-02-04T08:47:57;95152.19;;;3.95;100.00
39739;BME280;25422;48.286;8.484;2024-02-04T08:50:23;95150.94;;;4.01;100.00
39739;BME280;25422;48.286;8.484;2024-02-04T08:52:48;95145.44;;;4.18;100.00
39739;BME280;25422;48.286;8.484;2024-02-04T08:55:14;95145.91;;;4.36;100.00
39739;BME280;25422;48.286;8.484;2024-02-04T08:57:39;95136.56;;;4.34;100.00
39739;BME280;25422;48.286;8.484;2024-02-04T09:00:05;95153.59;;;4.25;100.00
39739;BME280;25422;48.286;8.484;2024-02-04T09:02:34;95145.88;;;4.49;100.00
39739;BME280;25422;48.286;8.484;2024-02-04T09:05:00;95150.84;;;4.52;100.00
39739;BME280;25422;48.286;8.484;2024-02-04T09:07:26;95153.00;;;4.83;100.00
39739;BME280;25422;48.286;8.484;2024-02-04T09:09:51;95146.34;;;4.92;100.00
39739;BME280;25422;48.286;8.484;2024-02-04T09:12:17;95151.66;;;4.77;100.00
39739;BME280;25422;48.286;8.484;2024-02-04T09:14:42;95144.47;;;5.29;100.00
39739;BME280;25422;48.286;8.484;2024-02-04T09:17:07;95158.75;;;4.99;100.00
39739;BME280;25422;48.286;8.484;2024-02-04T09:19:34;95154.50;;;4.74;100.00
39739;BME280;25422;48.286;8.484;2024-02-04T09:22:00;95150.88;;;4.64;100.00
39739;BME280;25422;48.286;8.484;2024-02-04T09:24:29;95151.06;;;4.36;100.00
39739;BME280;25422;48.286;8.484;2024-02-04T09:26:55;95145.81;;;4.62;100.00
39739;BME280;25422;48.286;8.484;2024-02-04T09:29:20;95151.16;;;4.48;100.00
39739;BME280;25422;48.286;8.484;2024-02-04T09:31:46;95152.91;;;4.47;100.00
39739;BME280;25422;48.286;8.484;2024-02-04T09:34:11;95143.78;;;4.79;100.00
39739;BME280;25422;48.286;8.484;2024-02-04T09:36:37;95134.94;;;5.05;100.00
39739;BME280;25422;48.286;8.484;2024-02-04T09:39:02;95134.81;;;5.07;100.00
39739;BME280;25422;48.286;8.484;2024-02-04T09:41:29;95137.63;;;5.28;100.00
39739;BME280;25422;48.286;8.484;2024-02-04T09:43:54;95126.22;;;5.53;100.00
39739;BME280;25422;48.286;8.484;2024-02-04T09:46:20;95137.00;;;5.83;100.00
39739;BME280;25422;48.286;8.484;2024-02-04T09:48:46;95132.06;;;5.80;100.00
39739;BME280;25422;48.286;8.484;2024-02-04T09:51:14;95129.94;;;5.85;100.00
39739;BME280;25422;48.286;8.484;2024-02-04T09:53:44;95122.63;;;5.79;100.00
39739;BME280;25422;48.286;8.484;2024-02-04T09:56:11;95108.69;;;5.68;100.00
39739;BME280;25422;48.286;8.484;2024-02-04T09:58:37;95118.88;;;6.28;100.00
39739;BME280;25422;48.286;8.484;2024-02-04T10:01:04;95123.41;;;6.58;100.00
39739;BME280;25422;48.286;8.484;2024-02-04T10:03:30;95142.91;;;6.64;100.00
39739;BME280;25422;48.286;8.484;2024-02-04T10:05:56;95155.47;;;6.36;100.00
39739;BME280;25422;48.286;8.484;2024-02-04T10:08:22;95169.41;;;6.35;100.00
39739;BME280;25422;48.286;8.484;2024-02-04T10:10:48;95169.03;;;5.95;100.00
39739;BME280;25422;48.286;8.484;2024-02-04T10:13:13;95186.13;;;5.86;100.00
39739;BME280;25422;48.286;8.484;2024-02-04T10:15:39;95195.44;;;5.88;100.00
39739;BME280;25422;48.286;8.484;2024-02-04T10:18:05;95197.78;;;5.69;100.00
39739;BME280;25422;48.286;8.484;2024-02-04T10:20:32;95196.09;;;5.21;100.00
39739;BME280;25422;48.286;8.484;2024-02-04T10:22:58;95188.97;;;5.12;100.00
39739;BME280;25422;48.286;8.484;2024-02-04T10:25:23;95178.47;;;5.37;100.00
39739;BME280;25422;48.286;8.484;2024-02-04T10:27:49;95174.03;;;5.62;100.00
39739;BME280;25422;48.286;8.484;2024-02-04T10:30:15;95160.25;;;5.62;100.00
39739;BME280;25422;48.286;8.484;2024-02-04T10:32:43;95153.69;;;6.14;100.00
39739;BME280;25422;48.286;8.484;2024-02-04T10:35:11;95135.88;;;6.10;100.00
39739;BME280;25422;48.286;8.484;2024-02-04T10:37:37;95132.66;;;6.51;100.00
39739;BME280;25422;48.286;8.484;2024-02-04T10:40:02;95139.88;;;6.48;100.00
39739;BME280;25422;48.286;8.484;2024-02-04T10:42:30;95153.38;;;6.19;100.00
39739;BME280;25422;48.286;8.484;2024-02-04T10:44:58;95137.38;;;6.46;100.00
39739;BME280;25422;48.286;8.484;2024-02-04T10:47:30;95126.13;;;7.85;100.00
39739;BME280;25422;48.286;8.484;2024-02-04T10:49:58;95126.75;;;7.68;100.00
39739;BME280;25422;48.286;8.484;2024-02-04T10:52:27;95125.97;;;7.56;100.00
39739;BME280;25422;48.286;8.484;2024-02-04T10:54:53;95127.03;;;7.32;100.00
39739;BME280;25422;48.286;8.484;2024-02-04T10:57:22;95121.19;;;6.98;100.00
39739;BME280;25422;48.286;8.484;2024-02-04T10:59:52;95116.06;;;7.50;100.00
39739;BME280;25422;48.286;8.484;2024-02-04T11:02:19;95123.75;;;7.72;100.00
39739;BME280;25422;48.286;8.484;2024-02-04T11:04:48;95125.97;;;7.35;100.00
39739;BME280;25422;48.286;8.484;2024-02-04T11:07:15;95114.84;;;6.79;100.00
39739;BME280;25422;48.286;8.484;2024-02-04T11:09:41;95109.16;;;6.85;100.00
39739;BME280;25422;48.286;8.484;2024-02-04T11:12:11;95108.56;;;6.82;100.00
39739;BME280;25422;48.286;8.484;2024-02-04T11:14:40;95107.44;;;7.07;100.00
39739;BME280;25422;48.286;8.484;2024-02-04T11:28:05;95098.16;;;7.56;100.00
39739;BME280;25422;48.286;8.484;2024-02-04T11:30:34;95079.44;;;7.20;100.00
39739;BME280;25422;48.286;8.484;2024-02-04T11:33:02;95081.41;;;7.49;100.00
39739;BME280;25422;48.286;8.484;2024-02-04T11:35:28;95103.16;;;8.00;100.00
39739;BME280;25422;48.286;8.484;2024-02-04T11:37:54;95084.84;;;8.72;100.00
39739;BME280;25422;48.286;8.484;2024-02-04T11:40:20;95077.03;;;9.88;100.00
39739;BME280;25422;48.286;8.484;2024-02-04T11:42:48;95076.59;;;9.45;100.00
39739;BME280;25422;48.286;8.484;2024-02-04T11:45:14;95084.59;;;9.04;100.00
39739;BME280;25422;48.286;8.484;2024-02-04T11:47:40;95071.94;;;8.70;100.00
39739;BME280;25422;48.286;8.484;2024-02-04T11:50:06;95075.94;;;8.65;100.00
39739;BME280;25422;48.286;8.484;2024-02-04T11:52:33;95070.34;;;8.79;100.00
39739;BME280;25422;48.286;8.484;2024-02-04T11:54:59;95059.59;;;9.31;100.00
39739;BME280;25422;48.286;8.484;2024-02-04T11:57:25;95058.50;;;8.94;100.00
39739;BME280;25422;48.286;8.484;2024-02-04T11:59:52;95060.63;;;8.31;100.00
39739;BME280;25422;48.286;8.484;2024-02-04T12:02:19;95059.25;;;7.96;100.00
39739;BME280;25422;48.286;8.484;2024-02-04T12:04:45;95062.03;;;7.73;100.00
39739;BME280;25422;48.286;8.484;2024-02-04T12:07:13;95056.31;;;7.79;100.00
39739;BME280;25422;48.286;8.484;2024-02-04T12:09:39;95059.81;;;7.58;100.00
39739;BME280;25422;48.286;8.484;2024-02-04T12:12:05;95055.75;;;8.06;100.00
39739;BME280;25422;48.286;8.484;2024-02-04T12:14:31;95044.34;;;8.58;100.00
39739;BME280;25422;48.286;8.484;2024-02-04T12:16:57;95037.78;;;8.93;100.00
39739;BME280;25422;48.286;8.484;2024-02-04T12:19:23;95034.34;;;8.83;100.00
39739;BME280;25422;48.286;8.484;2024-02-04T12:21:49;95027.97;;;10.09;100.00
39739;BME280;25422;48.286;8.484;2024-02-04T12:24:14;95016.53;;;9.83;100.00
39739;BME280;25422;48.286;8.484;2024-02-04T12:26:40;95004.56;;;9.42;100.00
39739;BME280;25422;48.286;8.484;2024-02-04T12:29:06;95008.38;;;9.48;100.00
39739;BME280;25422;48.286;8.484;2024-02-04T12:31:32;95003.72;;;9.52;100.00
39739;BME280;25422;48.286;8.484;2024-02-04T12:33:59;95008.78;;;9.16;100.00
39739;BME280;25422;48.286;8.484;2024-02-04T12:36:30;95013.28;;;9.23;100.00
39739;BME280;25422;48.286;8.484;2024-02-04T12:39:00;95022.41;;;8.51;100.00
39739;BME280;25422;48.286;8.484;2024-02-04T12:41:27;95023.56;;;8.37;100.00
39739;BME280;25422;48.286;8.484;2024-02-04T12:43:57;95026.13;;;8.17;100.00
39739;BME280;25422;48.286;8.484;2024-02-04T12:46:24;95037.03;;;7.91;100.00
39739;BME280;25422;48.286;8.484;2024-02-04T12:48:53;95026.63;;;7.60;100.00
39739;BME280;25422;48.286;8.484;2024-02-04T12:51:29;95032.97;;;7.68;100.00
39739;BME280;25422;48.286;8.484;2024-02-04T12:54:09;95023.66;;;7.65;100.00
39739;BME280;25422;48.286;8.484;2024-02-04T12:56:48;95024.53;;;7.85;100.00
39739;BME280;25422;48.286;8.484;2024-02-04T12:59:29;95018.69;;;8.03;100.00
39739;BME280;25422;48.286;8.484;2024-02-04T13:01:56;95018.47;;;7.75;100.00
39739;BME280;25422;48.286;8.484;2024-02-04T13:04:22;95009.78;;;7.65;100.00
39739;BME280;25422;48.286;8.484;2024-02-04T13:06:48;95022.03;;;7.74;100.00
39739;BME280;25422;48.286;8.484;2024-02-04T13:09:18;95018.38;;;7.24;100.00